RYR8DT EBCI-LIRF
Flight info
| Callsign | RYR8DT |
|---|---|
| Flight time | 1h 49m |
| Altitude | 39000 |
| Route | SOPOK Y863 OGLOR DCT EMGOD L607 ABUKA DCT TEDGO DCT BATUB DCT TIRUL M738 NATAG DCT LORLO DCT UNTAD DCT LUMAV DCT SUKOM DCT PELEG M726 GAVRA Y345 RITEB |
| Aircraft | B38M/M-SDE1FGHILORVWXY/HB1 |
Departure
| Time | 2026-05-06 15:54 |
|---|---|
| Airport | Brussels South Charleroi Airport (EBCI) |
Arrival
| Time | 2026-05-06 17:44 |
|---|---|
| Airport | Rome–Fiumicino Leonardo da Vinci International Airport (LIRF) |
| Time | Latitude | Longitude | Altitude | Speed | Heading |
|---|---|---|---|---|---|
| 2026-05-06 15:29 | 50.46867 | 4.47099 | 627 ft | 0 kts | 335° |
| 2026-05-06 15:29 | 50.46868 | 4.47099 | 627 ft | 0 kts | 335° |
| 2026-05-06 15:47 | 50.46865 | 4.47101 | 632 ft | 2 kts | 335° |
| 2026-05-06 15:48 | 50.46844 | 4.47116 | 631 ft | 1 kts | 335° |
| 2026-05-06 15:48 | 50.46824 | 4.47125 | 624 ft | 4 kts | 18° |
| 2026-05-06 15:48 | 50.46811 | 4.47101 | 621 ft | 4 kts | 65° |
| 2026-05-06 15:48 | 50.46804 | 4.47077 | 620 ft | 1 kts | 65° |
| 2026-05-06 15:51 | 50.46805 | 4.47079 | 621 ft | 1 kts | 66° |
| 2026-05-06 15:51 | 50.46815 | 4.47119 | 620 ft | 8 kts | 65° |
| 2026-05-06 15:51 | 50.46850 | 4.47237 | 620 ft | 16 kts | 65° |
| 2026-05-06 15:52 | 50.46904 | 4.47422 | 625 ft | 21 kts | 65° |
| 2026-05-06 15:52 | 50.46920 | 4.47606 | 625 ft | 15 kts | 147° |
| 2026-05-06 15:52 | 50.46846 | 4.47661 | 628 ft | 8 kts | 153° |
| 2026-05-06 15:52 | 50.46791 | 4.47700 | 615 ft | 10 kts | 156° |
| 2026-05-06 15:53 | 50.46723 | 4.47731 | 616 ft | 11 kts | 178° |
| 2026-05-06 15:53 | 50.46667 | 4.47632 | 623 ft | 17 kts | 241° |
| 2026-05-06 15:53 | 50.46526 | 4.47146 | 617 ft | 87 kts | 245° |
| 2026-05-06 15:53 | 50.46178 | 4.45943 | 621 ft | 152 kts | 246° |
| 2026-05-06 15:54 | 50.45709 | 4.44328 | 1084 ft | 169 kts | 248° |
| 2026-05-06 15:54 | 50.45205 | 4.42588 | 1901 ft | 173 kts | 249° |
| 2026-05-06 15:54 | 50.44690 | 4.40771 | 2235 ft | 192 kts | 250° |
| 2026-05-06 15:54 | 50.44140 | 4.38788 | 2356 ft | 205 kts | 249° |
| 2026-05-06 15:55 | 50.43528 | 4.36663 | 2752 ft | 223 kts | 249° |
| 2026-05-06 15:55 | 50.42896 | 4.34432 | 3093 ft | 229 kts | 249° |
| 2026-05-06 15:55 | 50.42252 | 4.32144 | 3995 ft | 229 kts | 248° |
| 2026-05-06 15:55 | 50.41605 | 4.29868 | 5006 ft | 227 kts | 249° |
| 2026-05-06 15:56 | 50.40838 | 4.27634 | 5715 ft | 244 kts | 233° |
| 2026-05-06 15:56 | 50.39441 | 4.26118 | 6508 ft | 251 kts | 195° |
| 2026-05-06 15:56 | 50.37704 | 4.26145 | 7248 ft | 254 kts | 161° |
| 2026-05-06 15:56 | 50.36145 | 4.27456 | 8120 ft | 254 kts | 141° |
| 2026-05-06 15:57 | 50.35237 | 4.28631 | 8841 ft | 245 kts | 136° |
| 2026-05-06 15:57 | 50.33978 | 4.30467 | 9663 ft | 252 kts | 137° |
| 2026-05-06 15:57 | 50.32810 | 4.32584 | 10229 ft | 263 kts | 116° |
| 2026-05-06 15:57 | 50.32452 | 4.35386 | 10791 ft | 270 kts | 79° |
| 2026-05-06 15:58 | 50.32989 | 4.38172 | 11408 ft | 276 kts | 68° |
| 2026-05-06 15:58 | 50.33609 | 4.41049 | 12137 ft | 282 kts | 72° |
| 2026-05-06 15:58 | 50.34141 | 4.44043 | 12879 ft | 288 kts | 74° |
| 2026-05-06 15:58 | 50.34615 | 4.47177 | 13373 ft | 305 kts | 75° |
| 2026-05-06 15:59 | 50.35113 | 4.50507 | 13762 ft | 322 kts | 75° |
| 2026-05-06 15:59 | 50.35637 | 4.53986 | 14230 ft | 334 kts | 75° |
| 2026-05-06 15:59 | 50.36179 | 4.57583 | 14752 ft | 344 kts | 75° |
| 2026-05-06 15:59 | 50.36708 | 4.61259 | 15443 ft | 348 kts | 80° |
| 2026-05-06 16:00 | 50.36705 | 4.65060 | 16121 ft | 354 kts | 99° |
| 2026-05-06 16:00 | 50.36212 | 4.68860 | 16774 ft | 358 kts | 100° |
| 2026-05-06 16:00 | 50.35746 | 4.72722 | 17441 ft | 362 kts | 100° |
| 2026-05-06 16:00 | 50.35288 | 4.76624 | 18100 ft | 366 kts | 100° |
| 2026-05-06 16:01 | 50.34834 | 4.80567 | 18654 ft | 370 kts | 100° |
| 2026-05-06 16:01 | 50.34379 | 4.84542 | 19238 ft | 372 kts | 100° |
| 2026-05-06 16:01 | 50.33921 | 4.88545 | 19814 ft | 374 kts | 100° |
| 2026-05-06 16:01 | 50.33460 | 4.92571 | 20372 ft | 377 kts | 100° |
| 2026-05-06 16:02 | 50.32992 | 4.96637 | 20937 ft | 380 kts | 101° |
| 2026-05-06 16:02 | 50.32522 | 5.00714 | 21494 ft | 382 kts | 101° |
| 2026-05-06 16:02 | 50.32048 | 5.04809 | 22056 ft | 384 kts | 101° |
| 2026-05-06 16:02 | 50.31569 | 5.08940 | 22607 ft | 387 kts | 101° |
| 2026-05-06 16:03 | 50.31084 | 5.13107 | 22852 ft | 390 kts | 101° |
| 2026-05-06 16:03 | 50.30597 | 5.17277 | 22889 ft | 389 kts | 101° |
| 2026-05-06 16:03 | 50.30115 | 5.21381 | 22874 ft | 389 kts | 101° |
| 2026-05-06 16:03 | 50.29625 | 5.25548 | 22905 ft | 391 kts | 101° |
| 2026-05-06 16:04 | 50.29133 | 5.29717 | 23487 ft | 390 kts | 102° |
| 2026-05-06 16:04 | 50.28637 | 5.33910 | 23858 ft | 395 kts | 102° |
| 2026-05-06 16:04 | 50.28134 | 5.38149 | 24329 ft | 397 kts | 102° |
| 2026-05-06 16:04 | 50.27627 | 5.42407 | 24777 ft | 400 kts | 102° |
| 2026-05-06 16:05 | 50.27115 | 5.46687 | 25253 ft | 402 kts | 102° |
| 2026-05-06 16:05 | 50.26600 | 5.50986 | 25693 ft | 404 kts | 102° |
| 2026-05-06 16:05 | 50.26079 | 5.55312 | 26139 ft | 406 kts | 102° |
| 2026-05-06 16:05 | 50.25553 | 5.59670 | 26578 ft | 408 kts | 102° |
| 2026-05-06 16:06 | 50.25023 | 5.64051 | 27020 ft | 410 kts | 102° |
| 2026-05-06 16:06 | 50.24489 | 5.68440 | 27445 ft | 413 kts | 102° |
| 2026-05-06 16:06 | 50.23950 | 5.72856 | 27856 ft | 415 kts | 102° |
| 2026-05-06 16:06 | 50.23407 | 5.77300 | 28265 ft | 417 kts | 102° |
| 2026-05-06 16:07 | 50.22859 | 5.81759 | 28668 ft | 420 kts | 102° |
| 2026-05-06 16:07 | 50.22307 | 5.86249 | 29061 ft | 422 kts | 102° |
| 2026-05-06 16:07 | 50.21749 | 5.90759 | 29429 ft | 424 kts | 102° |
| 2026-05-06 16:07 | 50.21193 | 5.95243 | 29801 ft | 427 kts | 103° |
| 2026-05-06 16:08 | 50.20618 | 5.99863 | 30127 ft | 429 kts | 103° |
| 2026-05-06 16:08 | 50.20054 | 6.04380 | 30407 ft | 431 kts | 103° |
| 2026-05-06 16:08 | 50.19476 | 6.08993 | 30684 ft | 434 kts | 103° |
| 2026-05-06 16:08 | 50.18892 | 6.13637 | 30965 ft | 436 kts | 103° |
| 2026-05-06 16:09 | 50.18366 | 6.18311 | 31239 ft | 440 kts | 96° |
| 2026-05-06 16:09 | 50.18487 | 6.23099 | 31553 ft | 444 kts | 85° |
| 2026-05-06 16:09 | 50.18778 | 6.27904 | 31759 ft | 447 kts | 86° |
| 2026-05-06 16:09 | 50.19060 | 6.32754 | 32030 ft | 449 kts | 86° |
| 2026-05-06 16:10 | 50.19355 | 6.37618 | 32309 ft | 452 kts | 86° |
| 2026-05-06 16:10 | 50.19655 | 6.42511 | 32571 ft | 454 kts | 86° |
| 2026-05-06 16:10 | 50.19956 | 6.47427 | 32837 ft | 456 kts | 86° |
| 2026-05-06 16:10 | 50.20256 | 6.52372 | 33100 ft | 459 kts | 86° |
| 2026-05-06 16:11 | 50.20556 | 6.57327 | 33444 ft | 459 kts | 86° |
| 2026-05-06 16:11 | 50.20853 | 6.62283 | 33815 ft | 458 kts | 87° |
| 2026-05-06 16:11 | 50.20910 | 6.67243 | 34102 ft | 456 kts | 94° |
| 2026-05-06 16:11 | 50.20833 | 6.72202 | 34348 ft | 457 kts | 94° |
| 2026-05-06 16:12 | 50.20751 | 6.77153 | 34621 ft | 457 kts | 94° |
| 2026-05-06 16:12 | 50.20664 | 6.82110 | 34880 ft | 457 kts | 94° |
| 2026-05-06 16:12 | 50.20574 | 6.87082 | 35155 ft | 457 kts | 94° |
| 2026-05-06 16:12 | 50.20483 | 6.91975 | 35405 ft | 458 kts | 94° |
| 2026-05-06 16:13 | 50.20388 | 6.96945 | 35674 ft | 458 kts | 94° |
| 2026-05-06 16:13 | 50.20290 | 7.01976 | 35924 ft | 459 kts | 94° |
| 2026-05-06 16:13 | 50.20192 | 7.06902 | 36172 ft | 459 kts | 94° |
| 2026-05-06 16:13 | 50.20090 | 7.11886 | 36400 ft | 460 kts | 94° |
| 2026-05-06 16:14 | 50.19986 | 7.16876 | 36626 ft | 460 kts | 95° |
| 2026-05-06 16:14 | 50.19880 | 7.21881 | 36864 ft | 461 kts | 95° |
| 2026-05-06 16:14 | 50.19772 | 7.26893 | 37092 ft | 461 kts | 95° |
| 2026-05-06 16:14 | 50.19594 | 7.31870 | 37282 ft | 459 kts | 102° |
| 2026-05-06 16:15 | 50.18767 | 7.36635 | 37562 ft | 452 kts | 111° |
| 2026-05-06 16:15 | 50.17814 | 7.41317 | 37680 ft | 455 kts | 110° |
| 2026-05-06 16:15 | 50.16850 | 7.46036 | 37856 ft | 456 kts | 111° |
| 2026-05-06 16:15 | 50.15868 | 7.50738 | 38047 ft | 456 kts | 111° |
| 2026-05-06 16:16 | 50.14878 | 7.55421 | 38265 ft | 456 kts | 111° |
| 2026-05-06 16:16 | 50.13880 | 7.60120 | 38442 ft | 456 kts | 111° |
| 2026-05-06 16:16 | 50.12881 | 7.64807 | 38577 ft | 456 kts | 112° |
| 2026-05-06 16:16 | 50.11875 | 7.69519 | 38716 ft | 457 kts | 111° |
| 2026-05-06 16:17 | 50.09874 | 7.78850 | 38794 ft | 456 kts | 111° |
| 2026-05-06 16:17 | 50.07858 | 7.88185 | 38790 ft | 454 kts | 114° |
| 2026-05-06 16:18 | 50.06446 | 7.92521 | 38793 ft | 445 kts | 128° |
| 2026-05-06 16:18 | 50.04708 | 7.96506 | 38789 ft | 447 kts | 126° |
| 2026-05-06 16:18 | 50.01454 | 8.04137 | 38796 ft | 447 kts | 127° |
| 2026-05-06 16:19 | 49.97985 | 8.12108 | 38794 ft | 447 kts | 127° |
| 2026-05-06 16:19 | 49.94494 | 8.20086 | 38794 ft | 446 kts | 128° |
| 2026-05-06 16:20 | 49.90992 | 8.28062 | 38785 ft | 446 kts | 128° |
| 2026-05-06 16:20 | 49.87488 | 8.36017 | 38802 ft | 447 kts | 128° |
| 2026-05-06 16:21 | 49.83739 | 8.43556 | 38796 ft | 439 kts | 141° |
| 2026-05-06 16:21 | 49.79280 | 8.50054 | 38786 ft | 442 kts | 140° |
| 2026-05-06 16:22 | 49.74794 | 8.56590 | 38791 ft | 442 kts | 140° |
| 2026-05-06 16:22 | 49.72371 | 8.59439 | 38775 ft | 434 kts | 155° |
| 2026-05-06 16:22 | 49.69585 | 8.61098 | 38794 ft | 428 kts | 169° |
| 2026-05-06 16:23 | 49.63741 | 8.63036 | 38793 ft | 431 kts | 171° |
| 2026-05-06 16:23 | 49.57885 | 8.64755 | 38792 ft | 430 kts | 172° |
| 2026-05-06 16:24 | 49.52000 | 8.66402 | 38803 ft | 431 kts | 172° |
| 2026-05-06 16:24 | 49.46141 | 8.68310 | 38775 ft | 433 kts | 160° |
| 2026-05-06 16:25 | 49.40616 | 8.72086 | 38797 ft | 435 kts | 159° |
| 2026-05-06 16:25 | 49.35081 | 8.75890 | 38794 ft | 436 kts | 159° |
| 2026-05-06 16:26 | 49.29557 | 8.79716 | 38800 ft | 435 kts | 159° |
| 2026-05-06 16:26 | 49.24039 | 8.83533 | 38799 ft | 435 kts | 159° |
| 2026-05-06 16:27 | 49.18527 | 8.87337 | 38803 ft | 435 kts | 159° |
| 2026-05-06 16:27 | 49.13018 | 8.91130 | 38805 ft | 434 kts | 159° |
| 2026-05-06 16:28 | 49.07505 | 8.94915 | 38801 ft | 434 kts | 159° |
| 2026-05-06 16:28 | 49.02035 | 8.98662 | 38806 ft | 433 kts | 159° |
| 2026-05-06 16:29 | 48.96539 | 9.02417 | 38812 ft | 433 kts | 159° |
| 2026-05-06 16:29 | 48.91047 | 9.06162 | 38814 ft | 432 kts | 159° |
| 2026-05-06 16:30 | 48.86482 | 9.09267 | 38821 ft | 432 kts | 159° |
| 2026-05-06 16:30 | 48.80076 | 9.13614 | 38832 ft | 431 kts | 159° |
| 2026-05-06 16:31 | 48.74602 | 9.17319 | 38821 ft | 430 kts | 159° |
| 2026-05-06 16:31 | 48.69129 | 9.21014 | 38825 ft | 430 kts | 159° |
| 2026-05-06 16:32 | 48.63659 | 9.24700 | 38828 ft | 430 kts | 159° |
| 2026-05-06 16:32 | 48.58100 | 9.27679 | 38826 ft | 428 kts | 164° |
| 2026-05-06 16:33 | 48.52448 | 9.30559 | 38827 ft | 428 kts | 164° |
| 2026-05-06 16:34 | 48.43976 | 9.34924 | 38833 ft | 428 kts | 164° |
| 2026-05-06 16:34 | 48.38329 | 9.37829 | 38830 ft | 429 kts | 164° |
| 2026-05-06 16:35 | 48.32671 | 9.40733 | 38835 ft | 429 kts | 164° |
| 2026-05-06 16:35 | 48.27052 | 9.43610 | 38829 ft | 430 kts | 164° |
| 2026-05-06 16:36 | 48.21382 | 9.46507 | 38839 ft | 430 kts | 164° |
| 2026-05-06 16:36 | 48.15703 | 9.49400 | 38827 ft | 431 kts | 164° |
| 2026-05-06 16:37 | 48.10028 | 9.52286 | 38837 ft | 431 kts | 164° |
| 2026-05-06 16:37 | 48.04347 | 9.55168 | 38832 ft | 431 kts | 164° |
| 2026-05-06 16:37 | 48.01589 | 9.56918 | 38809 ft | 435 kts | 151° |
| 2026-05-06 16:38 | 47.99078 | 9.59445 | 38837 ft | 436 kts | 150° |
| 2026-05-06 16:38 | 47.94019 | 9.64501 | 38848 ft | 438 kts | 149° |
| 2026-05-06 16:39 | 47.89422 | 9.69171 | 38856 ft | 438 kts | 149° |
| 2026-05-06 16:39 | 47.84347 | 9.74338 | 38860 ft | 438 kts | 149° |
| 2026-05-06 16:40 | 47.79318 | 9.79447 | 38864 ft | 437 kts | 149° |
| 2026-05-06 16:40 | 47.74288 | 9.84547 | 38864 ft | 437 kts | 149° |
| 2026-05-06 16:41 | 47.69262 | 9.89629 | 38864 ft | 437 kts | 149° |
| 2026-05-06 16:41 | 47.64227 | 9.94709 | 38867 ft | 437 kts | 150° |
| 2026-05-06 16:42 | 47.60047 | 9.98917 | 38871 ft | 437 kts | 150° |
| 2026-05-06 16:42 | 47.54998 | 10.03990 | 38871 ft | 438 kts | 150° |
| 2026-05-06 16:43 | 47.49134 | 10.09865 | 38879 ft | 438 kts | 150° |
| 2026-05-06 16:43 | 47.44903 | 10.14094 | 38881 ft | 438 kts | 150° |
| 2026-05-06 16:44 | 47.39858 | 10.19126 | 38869 ft | 437 kts | 150° |
| 2026-05-06 16:44 | 47.34831 | 10.24129 | 38871 ft | 438 kts | 150° |
| 2026-05-06 16:45 | 47.28934 | 10.29981 | 38870 ft | 437 kts | 150° |
| 2026-05-06 16:45 | 47.24733 | 10.34141 | 38861 ft | 438 kts | 150° |
| 2026-05-06 16:46 | 47.19667 | 10.39147 | 38846 ft | 438 kts | 150° |
| 2026-05-06 16:46 | 47.14594 | 10.44149 | 38861 ft | 438 kts | 151° |
| 2026-05-06 16:47 | 47.09578 | 10.49085 | 38832 ft | 438 kts | 151° |
| 2026-05-06 16:47 | 47.04309 | 10.53379 | 38821 ft | 424 kts | 168° |
| 2026-05-06 16:48 | 46.98657 | 10.56017 | 38852 ft | 428 kts | 167° |
| 2026-05-06 16:48 | 46.92970 | 10.58636 | 38835 ft | 428 kts | 167° |
| 2026-05-06 16:49 | 46.87282 | 10.61207 | 38863 ft | 429 kts | 167° |
| 2026-05-06 16:49 | 46.81584 | 10.63773 | 38839 ft | 428 kts | 167° |
| 2026-05-06 16:50 | 46.75860 | 10.66345 | 38872 ft | 430 kts | 167° |
| 2026-05-06 16:50 | 46.70115 | 10.68527 | 38874 ft | 425 kts | 172° |
| 2026-05-06 16:51 | 46.64319 | 10.70395 | 38833 ft | 425 kts | 172° |
| 2026-05-06 16:51 | 46.58578 | 10.72287 | 38880 ft | 427 kts | 172° |
| 2026-05-06 16:52 | 46.52784 | 10.74198 | 38894 ft | 426 kts | 172° |
| 2026-05-06 16:52 | 46.47000 | 10.76102 | 38904 ft | 425 kts | 172° |
| 2026-05-06 16:53 | 46.41231 | 10.77997 | 38919 ft | 425 kts | 172° |
| 2026-05-06 16:53 | 46.35451 | 10.79891 | 38930 ft | 426 kts | 172° |
| 2026-05-06 16:54 | 46.29696 | 10.81773 | 38916 ft | 427 kts | 172° |
| 2026-05-06 16:54 | 46.23902 | 10.83664 | 38932 ft | 428 kts | 172° |
| 2026-05-06 16:55 | 46.18228 | 10.86432 | 38943 ft | 433 kts | 164° |
| 2026-05-06 16:55 | 46.12607 | 10.89581 | 38937 ft | 433 kts | 163° |
| 2026-05-06 16:56 | 46.06978 | 10.92747 | 38904 ft | 434 kts | 163° |
| 2026-05-06 16:56 | 46.01356 | 10.95904 | 38896 ft | 434 kts | 163° |
| 2026-05-06 16:57 | 45.95706 | 10.99069 | 38885 ft | 435 kts | 163° |
| 2026-05-06 16:57 | 45.90065 | 11.02223 | 38881 ft | 435 kts | 163° |
| 2026-05-06 16:58 | 45.84444 | 11.05359 | 38873 ft | 436 kts | 163° |
| 2026-05-06 16:58 | 45.78801 | 11.08500 | 38897 ft | 436 kts | 163° |
| 2026-05-06 16:59 | 45.73136 | 11.11645 | 38838 ft | 435 kts | 163° |
| 2026-05-06 16:59 | 45.67472 | 11.14785 | 38876 ft | 438 kts | 163° |
| 2026-05-06 17:00 | 45.61807 | 11.17918 | 38862 ft | 435 kts | 163° |
| 2026-05-06 17:00 | 45.56170 | 11.21028 | 38868 ft | 439 kts | 163° |
| 2026-05-06 17:01 | 45.50465 | 11.24169 | 38687 ft | 439 kts | 163° |
| 2026-05-06 17:01 | 45.47617 | 11.25734 | 38431 ft | 437 kts | 163° |
| 2026-05-06 17:01 | 45.44782 | 11.27291 | 38160 ft | 437 kts | 163° |
| 2026-05-06 17:01 | 45.41976 | 11.28831 | 37877 ft | 437 kts | 163° |
| 2026-05-06 17:02 | 45.39134 | 11.30387 | 37599 ft | 437 kts | 163° |
| 2026-05-06 17:02 | 45.36294 | 11.31942 | 37336 ft | 438 kts | 164° |
| 2026-05-06 17:02 | 45.33445 | 11.33499 | 37068 ft | 438 kts | 164° |
| 2026-05-06 17:02 | 45.30595 | 11.35056 | 36797 ft | 438 kts | 164° |
| 2026-05-06 17:03 | 45.27745 | 11.36610 | 36533 ft | 438 kts | 164° |
| 2026-05-06 17:03 | 45.24899 | 11.38162 | 36274 ft | 438 kts | 164° |
| 2026-05-06 17:03 | 45.22089 | 11.39691 | 36021 ft | 437 kts | 165° |
| 2026-05-06 17:03 | 45.19216 | 11.41253 | 35849 ft | 436 kts | 165° |
| 2026-05-06 17:04 | 45.16381 | 11.42794 | 35855 ft | 437 kts | 165° |
| 2026-05-06 17:04 | 45.10719 | 11.45865 | 35857 ft | 440 kts | 165° |
| 2026-05-06 17:05 | 45.04995 | 11.48963 | 35853 ft | 440 kts | 165° |
| 2026-05-06 17:05 | 44.99272 | 11.52053 | 35842 ft | 441 kts | 165° |
| 2026-05-06 17:06 | 44.93535 | 11.55145 | 35856 ft | 441 kts | 166° |
| 2026-05-06 17:06 | 44.87798 | 11.58231 | 35850 ft | 441 kts | 166° |
| 2026-05-06 17:07 | 44.82047 | 11.61281 | 35848 ft | 439 kts | 170° |
| 2026-05-06 17:07 | 44.79103 | 11.62072 | 35861 ft | 428 kts | 179° |
| 2026-05-06 17:07 | 44.76136 | 11.62686 | 35850 ft | 431 kts | 178° |
| 2026-05-06 17:08 | 44.70239 | 11.63922 | 35855 ft | 430 kts | 179° |
| 2026-05-06 17:08 | 44.64310 | 11.65132 | 35859 ft | 430 kts | 179° |
| 2026-05-06 17:09 | 44.58386 | 11.66336 | 35858 ft | 430 kts | 179° |
| 2026-05-06 17:09 | 44.52469 | 11.67537 | 35859 ft | 430 kts | 179° |
| 2026-05-06 17:10 | 44.46542 | 11.68738 | 35869 ft | 430 kts | 179° |
| 2026-05-06 17:10 | 44.40630 | 11.69933 | 35871 ft | 429 kts | 179° |
| 2026-05-06 17:11 | 44.34721 | 11.71125 | 35880 ft | 429 kts | 179° |
| 2026-05-06 17:11 | 44.28800 | 11.72318 | 35888 ft | 429 kts | 179° |
| 2026-05-06 17:12 | 44.22926 | 11.73497 | 35886 ft | 429 kts | 179° |
| 2026-05-06 17:12 | 44.17016 | 11.74676 | 35901 ft | 429 kts | 180° |
| 2026-05-06 17:13 | 44.11136 | 11.75846 | 35881 ft | 428 kts | 180° |
| 2026-05-06 17:13 | 44.05360 | 11.76997 | 35570 ft | 410 kts | 180° |
| 2026-05-06 17:13 | 44.02550 | 11.77553 | 35171 ft | 405 kts | 180° |
| 2026-05-06 17:14 | 43.99776 | 11.78102 | 34767 ft | 400 kts | 180° |
| 2026-05-06 17:14 | 43.97030 | 11.78646 | 34319 ft | 398 kts | 180° |
| 2026-05-06 17:14 | 43.94302 | 11.79186 | 33956 ft | 393 kts | 181° |
| 2026-05-06 17:14 | 43.91598 | 11.79722 | 33481 ft | 391 kts | 181° |
| 2026-05-06 17:15 | 43.88914 | 11.80251 | 33031 ft | 388 kts | 180° |
| 2026-05-06 17:15 | 43.86245 | 11.80777 | 32530 ft | 385 kts | 181° |
| 2026-05-06 17:15 | 43.83631 | 11.81291 | 32059 ft | 383 kts | 180° |
| 2026-05-06 17:15 | 43.81000 | 11.81808 | 31606 ft | 381 kts | 180° |
| 2026-05-06 17:16 | 43.78390 | 11.82323 | 31219 ft | 378 kts | 179° |
| 2026-05-06 17:16 | 43.75807 | 11.83130 | 30774 ft | 381 kts | 174° |
| 2026-05-06 17:16 | 43.73237 | 11.83990 | 30362 ft | 379 kts | 175° |
| 2026-05-06 17:16 | 43.70670 | 11.84826 | 29952 ft | 377 kts | 175° |
| 2026-05-06 17:17 | 43.68134 | 11.85640 | 29502 ft | 374 kts | 175° |
| 2026-05-06 17:17 | 43.65604 | 11.86447 | 29033 ft | 371 kts | 175° |
| 2026-05-06 17:17 | 43.63107 | 11.87241 | 28808 ft | 367 kts | 175° |
| 2026-05-06 17:18 | 43.58113 | 11.88824 | 28651 ft | 365 kts | 175° |
| 2026-05-06 17:18 | 43.55633 | 11.89609 | 28112 ft | 366 kts | 175° |
| 2026-05-06 17:18 | 43.53164 | 11.90392 | 27761 ft | 362 kts | 174° |
| 2026-05-06 17:18 | 43.50707 | 11.91167 | 27345 ft | 361 kts | 174° |
| 2026-05-06 17:19 | 43.48269 | 11.91935 | 26986 ft | 358 kts | 174° |
| 2026-05-06 17:19 | 43.45850 | 11.92699 | 26581 ft | 356 kts | 174° |
| 2026-05-06 17:19 | 43.43477 | 11.93448 | 26306 ft | 350 kts | 174° |
| 2026-05-06 17:19 | 43.41139 | 11.94185 | 26253 ft | 339 kts | 174° |
| 2026-05-06 17:20 | 43.38880 | 11.94895 | 26164 ft | 330 kts | 174° |
| 2026-05-06 17:20 | 43.36599 | 11.95611 | 26079 ft | 342 kts | 174° |
| 2026-05-06 17:20 | 43.34262 | 11.96344 | 25982 ft | 348 kts | 174° |
| 2026-05-06 17:20 | 43.31888 | 11.97090 | 25902 ft | 351 kts | 174° |
| 2026-05-06 17:21 | 43.29506 | 11.97838 | 25822 ft | 351 kts | 173° |
| 2026-05-06 17:21 | 43.27121 | 11.98587 | 25754 ft | 351 kts | 173° |
| 2026-05-06 17:21 | 43.24741 | 11.99332 | 25665 ft | 351 kts | 173° |
| 2026-05-06 17:21 | 43.22358 | 12.00078 | 25592 ft | 350 kts | 173° |
| 2026-05-06 17:22 | 43.19977 | 12.00822 | 25519 ft | 350 kts | 173° |
| 2026-05-06 17:22 | 43.17603 | 12.01564 | 25451 ft | 350 kts | 173° |
| 2026-05-06 17:22 | 43.15233 | 12.02304 | 25384 ft | 349 kts | 173° |
| 2026-05-06 17:22 | 43.12864 | 12.03043 | 25319 ft | 349 kts | 173° |
| 2026-05-06 17:23 | 43.10530 | 12.03771 | 25178 ft | 349 kts | 173° |
| 2026-05-06 17:23 | 43.08169 | 12.04507 | 24858 ft | 347 kts | 173° |
| 2026-05-06 17:23 | 43.05819 | 12.05239 | 24508 ft | 345 kts | 173° |
| 2026-05-06 17:23 | 43.03488 | 12.05963 | 24147 ft | 343 kts | 173° |
| 2026-05-06 17:24 | 43.01161 | 12.06687 | 23790 ft | 342 kts | 173° |
| 2026-05-06 17:24 | 42.98839 | 12.07408 | 23406 ft | 341 kts | 172° |
| 2026-05-06 17:24 | 42.96527 | 12.08125 | 22990 ft | 340 kts | 172° |
| 2026-05-06 17:24 | 42.94229 | 12.08837 | 22620 ft | 337 kts | 172° |
| 2026-05-06 17:25 | 42.91949 | 12.09544 | 22261 ft | 334 kts | 172° |
| 2026-05-06 17:25 | 42.89689 | 12.10244 | 21909 ft | 332 kts | 172° |
| 2026-05-06 17:25 | 42.87446 | 12.10938 | 21574 ft | 329 kts | 172° |
| 2026-05-06 17:25 | 42.85221 | 12.11625 | 21227 ft | 326 kts | 172° |
| 2026-05-06 17:26 | 42.83008 | 12.12309 | 20882 ft | 324 kts | 172° |
| 2026-05-06 17:26 | 42.80816 | 12.12983 | 20531 ft | 321 kts | 172° |
| 2026-05-06 17:26 | 42.78647 | 12.13654 | 20207 ft | 319 kts | 172° |
| 2026-05-06 17:26 | 42.76485 | 12.14321 | 19852 ft | 318 kts | 172° |
| 2026-05-06 17:27 | 42.74333 | 12.14984 | 19337 ft | 323 kts | 172° |
| 2026-05-06 17:27 | 42.72145 | 12.15658 | 18984 ft | 322 kts | 171° |
| 2026-05-06 17:27 | 42.69975 | 12.16429 | 18634 ft | 324 kts | 161° |
| 2026-05-06 17:27 | 42.67992 | 12.17907 | 18318 ft | 325 kts | 154° |
| 2026-05-06 17:28 | 42.66037 | 12.19451 | 17918 ft | 324 kts | 154° |
| 2026-05-06 17:28 | 42.64090 | 12.20996 | 17529 ft | 323 kts | 154° |
| 2026-05-06 17:28 | 42.62156 | 12.22536 | 17134 ft | 322 kts | 154° |
| 2026-05-06 17:28 | 42.60228 | 12.24076 | 16764 ft | 320 kts | 154° |
| 2026-05-06 17:29 | 42.58307 | 12.25610 | 16395 ft | 319 kts | 154° |
| 2026-05-06 17:29 | 42.56400 | 12.27132 | 16041 ft | 318 kts | 154° |
| 2026-05-06 17:29 | 42.55135 | 12.28140 | 15808 ft | 317 kts | 154° |
| 2026-05-06 17:29 | 42.53241 | 12.29651 | 15468 ft | 316 kts | 154° |
| 2026-05-06 17:30 | 42.51351 | 12.31157 | 15139 ft | 314 kts | 154° |
| 2026-05-06 17:30 | 42.49469 | 12.32656 | 14806 ft | 313 kts | 154° |
| 2026-05-06 17:30 | 42.47599 | 12.34144 | 14475 ft | 311 kts | 154° |
| 2026-05-06 17:30 | 42.45733 | 12.35629 | 14145 ft | 310 kts | 153° |
| 2026-05-06 17:31 | 42.43879 | 12.37104 | 13833 ft | 308 kts | 153° |
| 2026-05-06 17:31 | 42.42036 | 12.38569 | 13483 ft | 307 kts | 153° |
| 2026-05-06 17:31 | 42.40202 | 12.40026 | 13176 ft | 304 kts | 153° |
| 2026-05-06 17:31 | 42.38381 | 12.41471 | 12831 ft | 303 kts | 153° |
| 2026-05-06 17:32 | 42.36572 | 12.42903 | 12552 ft | 298 kts | 155° |
| 2026-05-06 17:32 | 42.34727 | 12.43908 | 12393 ft | 283 kts | 168° |
| 2026-05-06 17:32 | 42.32846 | 12.44671 | 12269 ft | 274 kts | 166° |
| 2026-05-06 17:32 | 42.31053 | 12.45413 | 12096 ft | 266 kts | 166° |
| 2026-05-06 17:33 | 42.29286 | 12.46150 | 11732 ft | 266 kts | 166° |
| 2026-05-06 17:33 | 42.27548 | 12.46878 | 11415 ft | 264 kts | 166° |
| 2026-05-06 17:33 | 42.25798 | 12.47613 | 11124 ft | 260 kts | 167° |
| 2026-05-06 17:33 | 42.24056 | 12.47925 | 10772 ft | 250 kts | 190° |
| 2026-05-06 17:34 | 42.22471 | 12.47105 | 10381 ft | 245 kts | 217° |
| 2026-05-06 17:34 | 42.21354 | 12.45407 | 9999 ft | 243 kts | 241° |
| 2026-05-06 17:34 | 42.20729 | 12.43290 | 9627 ft | 242 kts | 249° |
| 2026-05-06 17:34 | 42.20190 | 12.41168 | 9317 ft | 237 kts | 249° |
| 2026-05-06 17:35 | 42.19669 | 12.39050 | 8898 ft | 238 kts | 250° |
| 2026-05-06 17:35 | 42.19158 | 12.36930 | 8631 ft | 236 kts | 250° |
| 2026-05-06 17:35 | 42.18656 | 12.34824 | 8313 ft | 236 kts | 250° |
| 2026-05-06 17:36 | 42.17663 | 12.30604 | 7710 ft | 236 kts | 250° |
| 2026-05-06 17:36 | 42.17172 | 12.28504 | 7422 ft | 234 kts | 250° |
| 2026-05-06 17:36 | 42.16682 | 12.26412 | 7151 ft | 234 kts | 250° |
| 2026-05-06 17:36 | 42.16193 | 12.24319 | 6902 ft | 233 kts | 251° |
| 2026-05-06 17:37 | 42.15714 | 12.22266 | 6657 ft | 232 kts | 250° |
| 2026-05-06 17:37 | 42.15122 | 12.20295 | 6498 ft | 221 kts | 231° |
| 2026-05-06 17:37 | 42.13966 | 12.19107 | 6455 ft | 205 kts | 201° |
| 2026-05-06 17:37 | 42.12590 | 12.18594 | 6168 ft | 206 kts | 195° |
| 2026-05-06 17:38 | 42.11199 | 12.18138 | 5860 ft | 207 kts | 194° |
| 2026-05-06 17:38 | 42.09792 | 12.17689 | 5529 ft | 209 kts | 194° |
| 2026-05-06 17:38 | 42.08368 | 12.17245 | 5192 ft | 211 kts | 194° |
| 2026-05-06 17:38 | 42.06908 | 12.16959 | 4859 ft | 214 kts | 179° |
| 2026-05-06 17:39 | 42.05438 | 12.17349 | 4519 ft | 217 kts | 165° |
| 2026-05-06 17:39 | 42.04003 | 12.17971 | 4172 ft | 217 kts | 165° |
| 2026-05-06 17:39 | 42.02569 | 12.18590 | 3826 ft | 217 kts | 165° |
| 2026-05-06 17:39 | 42.01131 | 12.19199 | 3508 ft | 214 kts | 165° |
| 2026-05-06 17:40 | 41.99730 | 12.19788 | 3191 ft | 209 kts | 164° |
| 2026-05-06 17:40 | 41.98353 | 12.20369 | 2879 ft | 206 kts | 164° |
| 2026-05-06 17:40 | 41.97007 | 12.20939 | 2607 ft | 199 kts | 165° |
| 2026-05-06 17:40 | 41.95710 | 12.21488 | 2326 ft | 191 kts | 164° |
| 2026-05-06 17:41 | 41.94467 | 12.22011 | 2060 ft | 182 kts | 165° |
| 2026-05-06 17:41 | 41.93291 | 12.22505 | 1802 ft | 172 kts | 165° |
| 2026-05-06 17:41 | 41.92177 | 12.22974 | 1590 ft | 162 kts | 165° |
| 2026-05-06 17:41 | 41.91143 | 12.23409 | 1425 ft | 149 kts | 164° |
| 2026-05-06 17:42 | 41.90186 | 12.23807 | 1201 ft | 141 kts | 165° |
| 2026-05-06 17:42 | 41.89263 | 12.24188 | 1155 ft | 139 kts | 166° |
| 2026-05-06 17:42 | 41.88300 | 12.24564 | 908 ft | 144 kts | 163° |
| 2026-05-06 17:42 | 41.87345 | 12.24993 | 678 ft | 143 kts | 162° |
| 2026-05-06 17:43 | 41.86439 | 12.25387 | 467 ft | 136 kts | 164° |
| 2026-05-06 17:43 | 41.85519 | 12.25763 | 258 ft | 141 kts | 163° |
| 2026-05-06 17:43 | 41.84562 | 12.26164 | 70 ft | 145 kts | 163° |
| 2026-05-06 17:43 | 41.83681 | 12.26530 | 19 ft | 111 kts | 161° |
| 2026-05-06 17:44 | 41.83188 | 12.26740 | 14 ft | 43 kts | 161° |
| 2026-05-06 17:44 | 41.82925 | 12.26846 | 15 ft | 42 kts | 166° |
| 2026-05-06 17:44 | 41.82639 | 12.26849 | 13 ft | 33 kts | 192° |
| 2026-05-06 17:44 | 41.82416 | 12.26782 | 13 ft | 27 kts | 192° |
| 2026-05-06 17:45 | 41.82234 | 12.26815 | 13 ft | 26 kts | 163° |
| 2026-05-06 17:45 | 41.82064 | 12.26886 | 13 ft | 23 kts | 162° |
| 2026-05-06 17:45 | 41.81932 | 12.26943 | 13 ft | 18 kts | 162° |
| 2026-05-06 17:45 | 41.81831 | 12.26984 | 14 ft | 15 kts | 163° |
| 2026-05-06 17:46 | 41.81736 | 12.27024 | 14 ft | 14 kts | 163° |
| 2026-05-06 17:46 | 41.81644 | 12.27063 | 14 ft | 14 kts | 163° |
| 2026-05-06 17:46 | 41.81555 | 12.27102 | 14 ft | 13 kts | 160° |
| 2026-05-06 17:46 | 41.81467 | 12.27139 | 14 ft | 13 kts | 163° |
| 2026-05-06 17:47 | 41.81381 | 12.27173 | 14 ft | 13 kts | 163° |
| 2026-05-06 17:47 | 41.81298 | 12.27207 | 14 ft | 12 kts | 162° |
| 2026-05-06 17:47 | 41.81237 | 12.27233 | 14 ft | 6 kts | 162° |
| 2026-05-06 17:47 | 41.81197 | 12.27250 | 14 ft | 6 kts | 163° |
| 2026-05-06 17:48 | 41.81158 | 12.27266 | 15 ft | 6 kts | 162° |
| 2026-05-06 17:48 | 41.81118 | 12.27283 | 15 ft | 7 kts | 162° |
| 2026-05-06 17:48 | 41.81045 | 12.27313 | 15 ft | 15 kts | 163° |
| 2026-05-06 17:48 | 41.80914 | 12.27351 | 15 ft | 23 kts | 185° |
| 2026-05-06 17:49 | 41.80733 | 12.27310 | 15 ft | 28 kts | 191° |
| 2026-05-06 17:49 | 41.80625 | 12.27113 | 16 ft | 27 kts | 249° |
| 2026-05-06 17:49 | 41.80558 | 12.26866 | 18 ft | 29 kts | 250° |
| 2026-05-06 17:49 | 41.80489 | 12.26616 | 18 ft | 28 kts | 250° |
| 2026-05-06 17:50 | 41.80426 | 12.26390 | 19 ft | 25 kts | 250° |
| 2026-05-06 17:50 | 41.80367 | 12.26175 | 17 ft | 24 kts | 250° |
| 2026-05-06 17:50 | 41.80307 | 12.25963 | 16 ft | 24 kts | 249° |
| 2026-05-06 17:50 | 41.80252 | 12.25753 | 16 ft | 24 kts | 249° |
| 2026-05-06 17:51 | 41.80196 | 12.25553 | 16 ft | 23 kts | 248° |
| 2026-05-06 17:51 | 41.80145 | 12.25379 | 16 ft | 15 kts | 251° |
| 2026-05-06 17:51 | 41.80112 | 12.25247 | 18 ft | 15 kts | 247° |
| 2026-05-06 17:51 | 41.80037 | 12.25169 | 16 ft | 14 kts | 206° |
| 2026-05-06 17:52 | 41.79950 | 12.25113 | 18 ft | 14 kts | 205° |
| 2026-05-06 17:52 | 41.79864 | 12.25060 | 16 ft | 14 kts | 205° |
| 2026-05-06 17:52 | 41.79806 | 12.25047 | 18 ft | 6 kts | 138° |
| 2026-05-06 17:52 | 41.79787 | 12.25094 | 17 ft | 6 kts | 115° |
| 2026-05-06 17:53 | 41.79777 | 12.25125 | 18 ft | 0 kts | 115° |
| 2026-05-06 17:53 | 41.79776 | 12.25127 | 18 ft | 1 kts | 115° |
| 2026-05-06 17:53 | 41.79776 | 12.25128 | 18 ft | 0 kts | 115° |